Time;durP1;ratioP1;P1;durP2;ratioP2;P2;SDS_P1;SDS_P2;PMS_P1;PMS_P2;Temp;Humidity;BMP_temperature;BMP_pressure;BME280_temperature;BME280_humidity;BME280_pressure;Samples;Min_cycle;Max_cycle;Signal;HPM_P1;HPM_P2
2022/11/14 00:01:20;;;;;;;263.20;60.35;;;;;;;4.82;100.00;100252.94;8442223;28;20093;-73
2022/11/14 00:05:21;;;;;;;250.90;60.90;;;;;;;4.77;100.00;100252.88;8428388;28;20525;-73
2022/11/14 00:09:26;;;;;;;370.17;63.25;;;;;;;4.65;100.00;100256.44;8438796;28;20060;-74
2022/11/14 00:13:27;;;;;;;347.40;62.92;;;;;;;4.60;100.00;100263.59;8437765;28;20523;-74
2022/11/14 00:17:28;;;;;;;303.35;62.63;;;;;;;4.48;100.00;100252.94;8423527;28;20723;-73
2022/11/14 00:21:29;;;;;;;413.52;62.03;;;;;;;4.41;100.00;100243.44;8442304;28;20044;-73
2022/11/14 00:25:31;;;;;;;292.00;57.17;;;;;;;4.43;100.00;100242.16;8442863;28;20358;-74
2022/11/14 00:29:32;;;;;;;309.35;60.47;;;;;;;4.37;100.00;100242.28;8422413;28;20104;-73
2022/11/14 00:33:33;;;;;;;346.15;62.15;;;;;;;4.46;100.00;100247.00;8392023;28;20063;-74
2022/11/14 00:37:34;;;;;;;372.63;56.92;;;;;;;4.37;100.00;100237.75;8440879;28;20481;-74
2022/11/14 00:41:35;;;;;;;329.85;59.88;;;;;;;4.29;100.00;100235.47;8424301;28;20040;-74
2022/11/14 00:45:36;;;;;;;278.77;57.40;;;;;;;4.31;100.00;100233.38;8389139;28;20167;-74
2022/11/14 00:49:38;;;;;;;323.35;57.42;;;;;;;4.32;100.00;100229.66;8412957;28;20135;-74
2022/11/14 00:53:39;;;;;;;246.45;54.55;;;;;;;4.32;100.00;100216.28;8430748;28;20066;-73
2022/11/14 00:57:40;;;;;;;341.63;57.65;;;;;;;4.27;100.00;100210.84;8433684;28;20094;-74
2022/11/14 01:01:40;;;;;;;259.02;56.95;;;;;;;4.20;100.00;100215.53;8440076;28;20070;-73
2022/11/14 01:05:43;;;;;;;233.85;57.38;;;;;;;4.15;100.00;100212.75;8428441;28;20048;-74
2022/11/14 01:09:44;;;;;;;224.05;55.55;;;;;;;4.10;100.00;100223.34;8428626;28;20044;-73
2022/11/14 01:13:46;;;;;;;272.23;57.40;;;;;;;3.99;100.00;100232.22;8420054;28;20052;-73
2022/11/14 01:17:47;;;;;;;271.70;58.10;;;;;;;3.99;100.00;100234.91;8387351;28;20039;-73
2022/11/14 01:21:48;;;;;;;239.35;59.53;;;;;;;3.93;100.00;100219.81;8439295;28;20048;-73
2022/11/14 01:25:49;;;;;;;250.70;58.17;;;;;;;3.89;100.00;100218.66;8441305;28;20425;-74
2022/11/14 01:29:53;;;;;;;340.73;61.80;;;;;;;3.86;100.00;100219.16;8440345;28;20547;-73
2022/11/14 01:33:54;;;;;;;313.05;62.55;;;;;;;3.87;100.00;100202.06;8405354;28;20100;-73
2022/11/14 01:37:55;;;;;;;258.13;61.42;;;;;;;3.93;100.00;100193.09;8403838;28;20044;-72
2022/11/14 01:41:57;;;;;;;267.10;62.38;;;;;;;3.95;100.00;100185.66;8388041;28;20052;-74
2022/11/14 01:46:01;;;;;;;321.40;65.45;;;;;;;3.96;100.00;100197.97;8385231;28;20047;-73
2022/11/14 01:50:05;;;;;;;372.40;64.28;;;;;;;3.88;100.00;100201.00;8439200;28;20126;-73
2022/11/14 01:54:13;;;;;;;266.88;62.40;;;;;;;3.91;100.00;100189.84;8406026;28;20036;-74
2022/11/14 01:58:15;;;;;;;198.00;61.72;;;;;;;3.97;100.00;100194.22;8368617;28;20049;-73
2022/11/14 02:02:19;;;;;;;314.67;63.63;;;;;;;3.94;100.00;100186.69;8369497;28;20049;-74
2022/11/14 02:06:22;;;;;;;311.23;61.22;;;;;;;3.97;100.00;100172.84;8369396;28;20462;-73
2022/11/14 02:10:23;;;;;;;249.77;58.88;;;;;;;4.02;100.00;100175.63;8358372;28;20040;-74
2022/11/14 02:14:26;;;;;;;349.33;60.00;;;;;;;4.07;100.00;100175.72;8376557;28;20056;-74
2022/11/14 02:18:27;;;;;;;204.75;55.30;;;;;;;4.10;100.00;100169.88;8374846;28;20097;-73
2022/11/14 02:22:28;;;;;;;196.52;55.25;;;;;;;4.10;100.00;100152.00;8373801;28;20112;-75
2022/11/14 02:26:29;;;;;;;181.95;52.92;;;;;;;4.09;100.00;100154.91;8373492;28;20053;-74
2022/11/14 02:30:30;;;;;;;172.18;51.30;;;;;;;4.06;100.00;100150.84;8444849;28;20039;-74
2022/11/14 02:34:31;;;;;;;129.65;50.03;;;;;;;4.00;100.00;100145.66;8445316;28;20051;-74
2022/11/14 02:38:32;;;;;;;179.52;47.97;;;;;;;4.01;100.00;100136.59;8443949;28;20070;-74
2022/11/14 02:42:34;;;;;;;173.77;49.90;;;;;;;3.90;100.00;100145.47;8446028;28;20455;-73
2022/11/14 02:46:35;;;;;;;182.23;47.90;;;;;;;3.82;100.00;100152.81;8443836;28;20059;-73
2022/11/14 02:50:36;;;;;;;215.85;47.80;;;;;;;3.91;100.00;100152.44;8445771;28;20056;-73
2022/11/14 02:54:37;;;;;;;146.23;45.70;;;;;;;3.83;100.00;100141.06;8443451;28;20044;-75
2022/11/14 02:58:38;;;;;;;136.65;46.38;;;;;;;3.77;100.00;100152.72;8446617;28;20044;-74
2022/11/14 03:02:39;;;;;;;140.50;49.65;;;;;;;3.74;100.00;100147.88;8446048;28;20143;-74
2022/11/14 03:06:40;;;;;;;154.45;46.42;;;;;;;3.78;100.00;100149.00;8436249;28;20055;-73
2022/11/14 03:10:41;;;;;;;138.45;47.35;;;;;;;3.82;100.00;100139.44;8437120;28;20052;-73
2022/11/14 03:14:42;;;;;;;156.82;45.60;;;;;;;3.85;100.00;100142.72;8442378;28;20062;-73
2022/11/14 03:18:43;;;;;;;153.27;45.70;;;;;;;3.90;100.00;100124.09;8443520;28;20501;-73
2022/11/14 03:22:44;;;;;;;134.35;44.08;;;;;;;3.90;100.00;100124.09;8442485;28;20133;-74
2022/11/14 03:26:45;;;;;;;150.93;45.92;;;;;;;3.90;100.00;100118.75;8441449;28;20048;-73
2022/11/14 03:30:46;;;;;;;139.43;45.30;;;;;;;3.91;100.00;100107.81;8441593;28;20040;-73
2022/11/14 03:34:50;;;;;;;155.27;45.47;;;;;;;3.95;100.00;100116.16;8446330;28;20481;-73
2022/11/14 03:38:51;;;;;;;151.60;43.10;;;;;;;3.95;100.00;100105.47;8435175;28;20451;-74
2022/11/14 03:42:53;;;;;;;148.45;44.75;;;;;;;3.97;100.00;100103.34;8414335;28;20044;-73
2022/11/14 03:46:59;;;;;;;130.00;41.80;;;;;;;4.01;100.00;100107.19;8391847;28;20521;-74
2022/11/14 03:50:59;;;;;;;156.95;42.25;;;;;;;4.08;100.00;100110.50;8409300;28;20050;-73
2022/11/14 03:55:01;;;;;;;148.18;41.53;;;;;;;4.10;100.00;100108.41;8440129;28;20055;-74
2022/11/14 03:59:01;;;;;;;141.90;42.10;;;;;;;4.05;100.00;100100.31;8444485;28;20410;-75
2022/11/14 04:03:03;;;;;;;159.48;40.92;;;;;;;4.09;100.00;100101.44;8435642;28;20746;-74
2022/11/14 04:07:04;;;;;;;173.30;43.05;;;;;;;4.14;100.00;100098.84;8444875;28;20054;-74
2022/11/14 04:11:06;;;;;;;202.82;43.08;;;;;;;4.18;100.00;100105.31;8436389;28;20040;-74
2022/11/14 04:15:08;;;;;;;164.45;41.67;;;;;;;4.26;100.00;100102.25;8441602;28;20047;-73
2022/11/14 04:19:09;;;;;;;178.77;44.88;;;;;;;4.26;100.00;100091.56;8388791;28;20438;-74
2022/11/14 04:23:09;;;;;;;188.07;44.28;;;;;;;4.34;100.00;100088.47;8437076;28;20096;-74
2022/11/14 04:27:10;;;;;;;125.45;42.67;;;;;;;4.38;100.00;100092.28;8440766;28;20051;-73
2022/11/14 04:31:11;;;;;;;190.00;44.17;;;;;;;4.40;100.00;100087.50;8429599;28;20078;-74
2022/11/14 04:35:12;;;;;;;252.20;45.03;;;;;;;4.41;100.00;100101.69;8418792;28;20509;-73
2022/11/14 04:39:13;;;;;;;176.15;44.45;;;;;;;4.39;100.00;100107.25;8419213;28;20070;-73
2022/11/14 04:43:14;;;;;;;205.32;46.90;;;;;;;4.43;100.00;100080.84;8429544;28;20380;-73
2022/11/14 04:47:15;;;;;;;192.27;44.30;;;;;;;4.47;100.00;100088.16;8428982;28;20052;-73
2022/11/14 04:51:18;;;;;;;190.48;43.67;;;;;;;4.41;100.00;100067.72;8372436;28;20048;-73
2022/11/14 04:55:19;;;;;;;189.02;45.40;;;;;;;4.38;100.00;100078.94;8431581;28;20052;-73
2022/11/14 04:59:20;;;;;;;179.45;45.65;;;;;;;4.36;100.00;100064.16;8421940;28;20654;-73
2022/11/14 05:03:20;;;;;;;256.73;45.72;;;;;;;4.38;100.00;100067.41;8409117;28;20044;-73
2022/11/14 05:07:21;;;;;;;193.88;45.03;;;;;;;4.46;100.00;100065.13;8416999;28;20064;-73
2022/11/14 05:11:22;;;;;;;174.95;44.53;;;;;;;4.42;100.00;100072.03;8421128;28;20131;-73
2022/11/14 05:15:23;;;;;;;207.68;44.55;;;;;;;4.37;100.00;100077.31;8428317;28;20102;-73
2022/11/14 05:19:25;;;;;;;215.60;43.45;;;;;;;4.33;100.00;100065.47;8436943;28;20048;-72
2022/11/14 05:23:27;;;;;;;273.63;43.55;;;;;;;4.36;100.00;100064.97;8427751;28;20078;-73
2022/11/14 05:27:28;;;;;;;198.48;44.28;;;;;;;4.42;100.00;100074.69;8434575;28;20059;-74
2022/11/14 05:31:29;;;;;;;152.15;44.58;;;;;;;4.49;100.00;100064.66;8373862;28;20067;-73
2022/11/14 05:35:33;;;;;;;137.65;44.28;;;;;;;4.49;100.00;100067.31;8427041;28;20083;-73
2022/11/14 05:39:34;;;;;;;216.13;43.22;;;;;;;4.45;100.00;100063.50;8426761;28;20044;-73
2022/11/14 05:43:35;;;;;;;239.60;44.58;;;;;;;4.48;100.00;100063.03;8431871;28;20098;-73
2022/11/14 05:47:36;;;;;;;189.43;44.08;;;;;;;4.49;100.00;100059.31;8432859;28;20048;-73
2022/11/14 05:51:37;;;;;;;198.85;43.08;;;;;;;4.49;100.00;100048.59;8380266;28;20098;-73
2022/11/14 05:55:38;;;;;;;192.38;41.33;;;;;;;4.42;100.00;100047.94;8432597;28;20048;-73
2022/11/14 05:59:39;;;;;;;163.52;44.42;;;;;;;4.44;100.00;100050.41;8432355;28;20490;-73
2022/11/14 06:03:42;;;;;;;151.48;42.38;;;;;;;4.50;100.00;100060.91;8432692;28;20040;-73
2022/11/14 06:07:43;;;;;;;159.35;44.00;;;;;;;4.42;100.00;100058.66;8394770;28;20494;-73
2022/11/14 06:11:44;;;;;;;151.07;45.58;;;;;;;4.39;100.00;100059.13;8432418;28;20059;-73
2022/11/14 06:15:44;;;;;;;168.13;56.13;;;;;;;4.42;100.00;100064.00;8431977;28;20052;-73
2022/11/14 06:19:46;;;;;;;140.75;45.53;;;;;;;4.39;100.00;100059.13;8431915;28;20052;-73
2022/11/14 06:23:47;;;;;;;201.95;52.00;;;;;;;4.45;100.00;100055.47;8431665;28;20444;-73
2022/11/14 06:27:48;;;;;;;176.95;43.05;;;;;;;4.51;100.00;100049.16;8431908;28;20055;-73
2022/11/14 06:31:49;;;;;;;166.75;50.42;;;;;;;4.52;100.00;100053.44;8431729;28;20123;-72
2022/11/14 06:35:50;;;;;;;188.80;44.45;;;;;;;4.48;100.00;100062.22;8431566;28;20052;-73
2022/11/14 06:39:51;;;;;;;197.73;49.33;;;;;;;4.54;100.00;100066.59;8431447;28;20113;-74
2022/11/14 06:43:53;;;;;;;150.43;50.38;;;;;;;4.57;100.00;100069.56;8431287;28;20115;-74
2022/11/14 06:47:58;;;;;;;147.38;45.88;;;;;;;4.57;100.00;100082.13;8431302;28;20607;-73
2022/11/14 06:51:59;;;;;;;154.57;48.95;;;;;;;4.56;100.00;100070.63;8430007;28;20047;-73
2022/11/14 06:56:00;;;;;;;135.27;45.95;;;;;;;4.54;100.00;100070.06;8429762;28;20414;-73
2022/11/14 07:00:01;;;;;;;155.60;44.85;;;;;;;4.51;100.00;100067.88;8425526;28;20042;-72
2022/11/14 07:04:02;;;;;;;131.43;45.17;;;;;;;4.52;100.00;100074.84;8418999;28;20047;-73
2022/11/14 07:08:04;;;;;;;137.40;49.38;;;;;;;4.51;100.00;100078.56;8430289;28;20056;-72
2022/11/14 07:12:04;;;;;;;128.65;46.78;;;;;;;4.58;100.00;100063.16;8430703;28;20131;-72
2022/11/14 07:16:06;;;;;;;134.73;46.25;;;;;;;4.63;100.00;100055.22;8430062;28;20040;-73
2022/11/14 07:20:07;;;;;;;140.18;47.67;;;;;;;4.66;100.00;100060.06;8430199;28;20043;-73
2022/11/14 07:24:08;;;;;;;150.73;47.35;;;;;;;4.67;100.00;100056.34;8429945;28;20052;-74
2022/11/14 07:28:09;;;;;;;134.15;47.95;;;;;;;4.78;100.00;100067.16;8429788;28;20101;-73
2022/11/14 07:32:13;;;;;;;133.57;47.00;;;;;;;4.84;100.00;100047.44;8392738;28;20054;-73
2022/11/14 07:36:15;;;;;;;115.03;43.75;;;;;;;4.82;100.00;100041.53;8428562;28;20051;-73
2022/11/14 07:40:17;;;;;;;117.85;44.55;;;;;;;4.83;100.00;100043.16;8325233;28;20478;-73
2022/11/14 07:44:19;;;;;;;112.30;43.83;;;;;;;4.93;100.00;100043.28;8321964;28;20050;-73
2022/11/14 07:48:21;;;;;;;117.43;45.38;;;;;;;4.94;100.00;100044.91;8291574;28;20057;-73
2022/11/14 07:52:22;;;;;;;103.20;43.72;;;;;;;4.97;100.00;100045.19;8325472;28;20045;-74
2022/11/14 07:56:24;;;;;;;100.90;41.55;;;;;;;4.92;100.00;100041.66;8324962;28;20046;-73
2022/11/14 08:00:25;;;;;;;111.47;45.60;;;;;;;5.03;100.00;100027.34;8325343;28;20050;-74
2022/11/14 08:04:26;;;;;;;104.80;44.35;;;;;;;5.05;100.00;100030.59;8324614;28;20077;-73
2022/11/14 08:08:27;;;;;;;95.07;41.28;;;;;;;4.99;100.00;100026.22;8308261;28;20463;-72
2022/11/14 08:12:59;;;;;;;96.85;41.00;;;;;;;5.04;100.00;100023.59;8324622;28;20042;-73
2022/11/14 08:17:00;;;;;;;96.47;40.28;;;;;;;5.05;100.00;100019.88;8308065;28;20515;-73
2022/11/14 08:21:04;;;;;;;105.05;41.42;;;;;;;5.04;100.00;100012.91;8324493;28;20068;-74
2022/11/14 08:25:06;;;;;;;97.43;42.85;;;;;;;5.04;100.00;100012.91;8324171;28;20068;-73
2022/11/14 08:29:07;;;;;;;94.47;38.40;;;;;;;5.05;100.00;99998.47;8348585;28;20494;-73
2022/11/14 08:33:08;;;;;;;99.20;42.67;;;;;;;5.07;100.00;99996.34;8427660;28;20131;-73
2022/11/14 08:37:09;;;;;;;93.38;39.47;;;;;;;5.07;100.00;100001.69;8428009;28;20043;-73
2022/11/14 08:41:10;;;;;;;84.50;39.55;;;;;;;5.02;100.00;99998.97;8427669;28;20130;-75
2022/11/14 08:45:11;;;;;;;95.63;40.67;;;;;;;5.05;100.00;99985.06;8427750;28;20465;-73
2022/11/14 08:49:12;;;;;;;81.15;37.45;;;;;;;5.15;100.00;99987.84;8417189;28;20051;-73
2022/11/14 08:53:16;;;;;;;87.57;39.08;;;;;;;5.13;100.00;99984.59;8426992;28;20051;-73
2022/11/14 08:57:17;;;;;;;86.78;38.83;;;;;;;5.14;100.00;99969.34;8427217;28;20419;-73
2022/11/14 09:01:18;;;;;;;84.10;39.53;;;;;;;5.16;100.00;99967.25;8427265;28;20077;-73
2022/11/14 09:05:20;;;;;;;91.75;38.05;;;;;;;5.28;100.00;99960.69;8427205;28;20417;-73
2022/11/14 09:09:21;;;;;;;94.07;38.40;;;;;;;5.36;100.00;99973.63;8427822;28;20060;-73
2022/11/14 09:13:22;;;;;;;84.78;37.80;;;;;;;5.27;100.00;99969.78;8427013;28;20040;-74
2022/11/14 09:17:23;;;;;;;83.15;38.10;;;;;;;5.18;100.00;99960.59;8378084;28;20051;-73
2022/11/14 09:21:24;;;;;;;87.20;39.47;;;;;;;5.22;100.00;99948.31;8433845;28;20068;-73
2022/11/14 09:25:26;;;;;;;89.72;39.78;;;;;;;5.30;100.00;99947.84;8433592;28;20229;-74
2022/11/14 09:29:27;;;;;;;89.88;41.35;;;;;;;5.43;100.00;99950.13;8414888;28;20093;-74
2022/11/14 09:33:28;;;;;;;95.13;42.83;;;;;;;5.50;100.00;99956.06;8433719;28;20557;-74
2022/11/14 09:37:29;;;;;;;101.95;43.13;;;;;;;5.48;100.00;99955.53;8432832;28;20052;-73
2022/11/14 09:41:57;;;;;;;98.25;44.92;;;;;;;5.49;100.00;99951.78;8433364;28;20134;-73
2022/11/14 09:45:58;;;;;;;91.15;41.35;;;;;;;5.50;100.00;99960.59;8296436;28;20419;-73
2022/11/14 09:50:20;;;;;;;93.63;41.72;;;;;;;5.47;100.00;99948.53;8329050;28;20076;-73
2022/11/14 09:54:26;;;;;;;85.00;41.55;;;;;;;5.63;100.00;99945.97;8279958;28;20064;-73
2022/11/14 09:58:30;;;;;;;94.55;43.05;;;;;;;5.75;100.00;99943.94;8328879;28;20076;-73
2022/11/14 10:02:53;;;;;;;91.57;43.67;;;;;;;5.90;100.00;99938.72;8312674;28;20490;-74
2022/11/14 10:07:12;;;;;;;94.55;43.33;;;;;;;5.99;100.00;99934.50;8329074;28;20080;-73
2022/11/14 10:11:21;;;;;;;90.97;42.75;;;;;;;6.06;100.00;99935.06;8311967;28;20137;-73
2022/11/14 10:15:47;;;;;;;93.45;42.97;;;;;;;6.01;100.00;99943.09;8327666;28;20059;-73
2022/11/14 10:20:11;;;;;;;88.18;43.25;;;;;;;6.21;100.00;99927.13;8414116;28;20437;-73
2022/11/14 10:24:21;;;;;;;96.30;44.47;;;;;;;6.39;100.00;99933.13;8402183;28;20040;-73
2022/11/14 10:28:39;;;;;;;95.32;45.33;;;;;;;6.56;100.00;99931.03;8431536;28;20413;-73
2022/11/14 10:32:58;;;;;;;100.53;42.47;;;;;;;6.77;100.00;99919.28;8401258;28;20043;-73
2022/11/14 10:37:25;;;;;;;88.37;41.30;;;;;;;6.74;100.00;99919.84;8430929;28;20113;-73
2022/11/14 10:41:27;;;;;;;97.55;44.60;;;;;;;6.75;100.00;99910.72;8262235;28;20069;-73
2022/11/14 10:45:51;;;;;;;93.47;44.15;;;;;;;6.88;100.00;99904.84;8262382;28;20204;-74
2022/11/14 10:50:11;;;;;;;98.63;44.00;;;;;;;7.27;100.00;99896.31;8217528;28;20058;-73
2022/11/14 10:54:31;;;;;;;109.55;47.83;;;;;;;7.57;100.00;99890.94;8182234;28;20549;-73
2022/11/14 10:58:37;;;;;;;87.43;41.72;;;;;;;7.62;100.00;99888.25;8197918;28;20047;-74
2022/11/14 11:02:56;;;;;;;90.78;43.38;;;;;;;7.49;100.00;99894.19;8198272;28;20054;-73
2022/11/14 11:11:55;;;;;;;89.53;43.67;;;;;;;7.63;100.00;99881.78;8181658;28;20059;-73
2022/11/14 11:15:59;;;;;;;91.75;43.28;;;;;;;7.83;100.00;99879.06;8207038;28;20458;-73
2022/11/14 11:20:33;;;;;;;98.05;43.50;;;;;;;8.01;100.00;99875.81;8326517;28;20519;-73
2022/11/14 11:24:36;;;;;;;86.22;42.83;;;;;;;8.15;100.00;99880.63;8208125;28;20053;-73
2022/11/14 11:28:36;;;;;;;89.40;42.08;;;;;;;8.32;100.00;99881.13;8260817;28;20060;-74
2022/11/14 11:32:38;;;;;;;81.97;40.35;;;;;;;8.45;100.00;99864.41;8293270;28;20185;-73
2022/11/14 11:36:46;;;;;;;86.97;40.15;;;;;;;8.51;100.00;99857.91;8292998;28;20412;-73
2022/11/14 11:40:48;;;;;;;;;;;;;;;8.53;100.00;99849.56;8244169;28;20065;-73
2022/11/14 11:44:52;;;;;;;81.88;40.25;;;;;;;8.61;99.76;99841.72;8292778;28;19921;-73
2022/11/14 11:49:05;;;;;;;74.45;39.55;;;;;;;8.71;99.94;99830.88;8275815;28;20049;-73
2022/11/14 11:53:18;;;;;;;82.43;39.78;;;;;;;8.82;99.69;99837.81;8291951;28;20064;-74
2022/11/14 11:57:25;;;;;;;81.72;39.92;;;;;;;8.93;99.37;99829.66;8292670;28;20496;-73
2022/11/14 12:01:26;;;;;;;84.32;41.13;;;;;;;9.00;98.83;99832.84;8382326;28;20122;-73
2022/11/14 12:05:31;;;;;;;107.80;50.42;;;;;;;9.08;98.41;99834.94;8428747;28;20044;-73
2022/11/14 12:09:38;;;;;;;82.25;40.28;;;;;;;9.16;98.11;99837.03;8428362;28;20105;-74
2022/11/14 12:13:56;;;;;;;155.38;74.78;;;;;;;9.23;96.79;99837.53;8387296;28;20043;-72
2022/11/14 12:18:03;;;;;;;280.55;104.97;;;;;;;9.32;95.96;99830.44;8427676;28;20477;-74
2022/11/14 12:22:56;;;;;;;80.47;39.88;;;;;;;9.63;95.52;99823.66;8428112;28;20048;-74
2022/11/14 12:27:24;;;;;;;84.75;39.33;;;;;;;10.21;96.09;99820.91;8259274;28;20078;-74
2022/11/14 12:31:32;;;;;;;63.63;33.55;;;;;;;10.53;92.81;99823.72;8259458;28;20509;-74
2022/11/14 12:35:34;;;;;;;58.85;30.70;;;;;;;10.86;91.40;99810.28;8258468;28;20634;-74
2022/11/14 12:39:36;;;;;;;55.13;30.05;;;;;;;11.18;89.61;99807.63;8258873;28;20057;-74
2022/11/14 12:43:40;;;;;;;57.97;29.88;;;;;;;11.54;88.89;99809.72;8258155;28;20146;-73
2022/11/14 12:48:20;;;;;;;49.63;27.80;;;;;;;11.36;86.95;99806.81;8258978;28;20069;-73
2022/11/14 12:52:39;;;;;;;60.00;29.20;;;;;;;11.44;86.24;99800.69;8257619;28;20056;-74
2022/11/14 12:56:50;;;;;;;54.03;28.02;;;;;;;11.51;85.23;99794.09;8258482;28;20046;-73
2022/11/14 13:00:51;;;;;;;55.58;28.52;;;;;;;11.86;84.07;99796.16;8373017;28;20074;-73
2022/11/14 13:05:47;;;;;;;47.97;27.25;;;;;;;12.46;83.07;99787.91;8391597;28;20501;-73
2022/11/14 13:10:26;;;;;;;47.70;27.13;;;;;;;12.49;80.62;99787.28;8258324;28;20050;-74
2022/11/14 13:23:40;;;;;;;59.85;28.40;;;;;;;11.61;82.20;99777.69;8195632;28;20071;-74
2022/11/14 13:27:41;;;;;;;52.90;28.98;;;;;;;11.28;83.00;99772.31;8195389;28;20433;-73
2022/11/14 13:31:48;;;;;;;61.30;29.27;;;;;;;11.02;84.16;99773.84;8194792;28;20058;-73
2022/11/14 13:35:51;;;;;;;65.00;34.20;;;;;;;10.81;85.13;99757.16;8211795;28;20059;-73
2022/11/14 13:40:02;;;;;;;57.28;29.45;;;;;;;10.68;85.79;99757.09;8223194;28;20095;-73
2022/11/14 13:44:27;;;;;;;61.33;29.70;;;;;;;10.57;86.34;99759.91;8292265;28;20062;-74
2022/11/14 13:48:46;;;;;;;60.67;29.98;;;;;;;10.48;87.03;99753.59;8322729;28;20052;-73
2022/11/14 13:52:48;;;;;;;54.85;27.88;;;;;;;10.45;87.20;99754.19;8322824;28;20053;-73
2022/11/14 13:57:31;;;;;;;53.00;28.98;;;;;;;10.38;87.54;99751.03;8322518;28;20518;-73
2022/11/14 14:02:02;;;;;;;58.97;30.27;;;;;;;10.27;87.95;99744.16;8258111;28;20052;-73
2022/11/14 14:06:25;;;;;;;55.80;28.48;;;;;;;10.22;87.72;99752.31;8263434;28;20493;-75
2022/11/14 14:10:42;;;;;;;67.40;32.00;;;;;;;10.19;87.97;99750.22;8263629;28;20058;-73
2022/11/14 14:14:49;;;;;;;99.47;45.03;;;;;;;10.08;88.48;99751.41;8247097;28;20050;-73
2022/11/14 14:19:11;;;;;;;91.97;43.03;;;;;;;9.93;89.10;99738.13;8262928;28;20054;-73
2022/11/14 14:23:18;;;;;;;93.07;44.13;;;;;;;9.74;90.19;99741.56;8263321;28;20050;-73
2022/11/14 14:27:27;;;;;;;71.55;35.15;;;;;;;9.65;90.85;99743.28;8262930;28;20054;-73
2022/11/14 14:31:39;;;;;;;61.60;29.95;;;;;;;9.56;91.34;99734.22;8296484;28;20056;-73
2022/11/14 14:35:51;;;;;;;72.55;37.78;;;;;;;9.45;91.56;99738.13;8344215;28;20052;-73
2022/11/14 14:40:00;;;;;;;68.30;34.13;;;;;;;9.36;91.71;99734.41;8425551;28;20135;-73
2022/11/14 14:44:01;;;;;;;68.60;34.72;;;;;;;9.23;92.10;99719.75;8431031;28;20036;-73
2022/11/14 14:48:03;;;;;;;62.25;29.73;;;;;;;9.12;92.99;99717.41;8431268;28;20158;-74
2022/11/14 14:52:30;;;;;;;68.93;32.00;;;;;;;9.02;93.76;99712.94;8417731;28;20048;-73
2022/11/14 14:56:31;;;;;;;66.45;31.67;;;;;;;8.92;93.67;99717.63;8430772;28;20126;-73
2022/11/14 15:00:33;;;;;;;59.47;30.70;;;;;;;8.79;93.87;99703.69;8430815;28;20094;-73
2022/11/14 15:04:35;;;;;;;62.90;30.70;;;;;;;8.70;94.38;99710.78;8429847;28;20135;-73
2022/11/14 15:08:37;;;;;;;59.53;31.48;;;;;;;8.59;94.77;99714.63;8359738;28;20040;-73
2022/11/14 15:12:39;;;;;;;71.95;32.70;;;;;;;8.48;95.32;99703.13;8326202;28;20483;-73
2022/11/14 15:16:41;;;;;;;68.30;32.03;;;;;;;8.38;95.59;99697.03;8309657;28;20041;-73
2022/11/14 15:20:41;;;;;;;69.22;32.03;;;;;;;8.26;95.88;99693.84;8308703;28;20122;-74
2022/11/14 15:24:43;;;;;;;65.78;31.67;;;;;;;8.14;96.15;99693.41;8272829;28;20087;-73
2022/11/14 15:28:44;;;;;;;66.82;32.58;;;;;;;8.05;96.62;99685.91;8326358;28;20514;-73
2022/11/14 15:32:50;;;;;;;68.78;33.85;;;;;;;7.98;96.96;99677.31;8326189;28;20076;-73
2022/11/14 15:37:09;;;;;;;79.75;38.28;;;;;;;7.89;97.34;99673.59;8325671;28;20049;-73
2022/11/14 15:41:21;;;;;;;73.00;37.22;;;;;;;7.91;97.85;99679.53;8325693;28;20049;-73
2022/11/14 15:45:28;;;;;;;72.60;34.53;;;;;;;7.90;98.70;99680.59;8343130;28;20535;-74
2022/11/14 15:49:29;;;;;;;72.55;35.30;;;;;;;7.95;98.24;99677.06;8391742;28;20047;-73
2022/11/14 15:53:31;;;;;;;98.05;43.22;;;;;;;7.94;98.20;99680.84;8368578;28;20097;-73
2022/11/14 15:57:34;;;;;;;70.90;35.92;;;;;;;7.90;98.30;99669.84;8416752;28;20147;-73
2022/11/14 16:01:35;;;;;;;78.00;35.50;;;;;;;7.85;98.49;99661.81;8432461;28;20501;-73
2022/11/14 16:05:36;;;;;;;76.60;36.30;;;;;;;7.83;98.20;99657.78;8430726;28;20131;-73
2022/11/14 16:09:37;;;;;;;75.40;37.00;;;;;;;7.77;98.47;99657.03;8431039;28;20044;-73
2022/11/14 16:13:39;;;;;;;64.07;32.05;;;;;;;7.74;98.43;99654.88;8429812;28;20055;-74
2022/11/14 16:17:43;;;;;;;64.65;30.92;;;;;;;7.72;98.59;99664.31;8428440;28;20135;-73
2022/11/14 16:21:44;;;;;;;56.88;29.65;;;;;;;7.65;98.65;99645.78;8414305;28;20477;-73
2022/11/14 16:25:46;;;;;;;54.75;29.55;;;;;;;7.60;98.59;99643.13;8428601;28;20040;-74
2022/11/14 16:29:47;;;;;;;61.20;31.65;;;;;;;7.52;98.96;99641.78;8439421;28;20097;-75
2022/11/14 16:33:48;;;;;;;60.97;30.33;;;;;;;7.44;99.35;99652.31;8427631;28;20126;-74
2022/11/14 16:37:51;;;;;;;65.32;33.13;;;;;;;7.38;99.15;99645.34;8364426;28;20108;-73
2022/11/14 16:41:52;;;;;;;88.28;32.40;;;;;;;7.34;99.64;99638.91;8428885;28;20044;-74
2022/11/14 16:45:54;;;;;;;63.35;32.42;;;;;;;7.29;99.65;99630.88;8380927;28;20055;-73
2022/11/14 16:49:54;;;;;;;57.88;30.88;;;;;;;7.28;99.39;99634.63;8431625;28;20060;-74
2022/11/14 16:53:56;;;;;;;60.53;29.25;;;;;;;7.22;99.28;99642.72;8423300;28;20036;-74
2022/11/14 16:57:57;;;;;;;60.65;30.77;;;;;;;7.15;99.45;99642.19;8384633;28;20390;-74
2022/11/14 17:01:59;;;;;;;62.10;33.25;;;;;;;7.11;99.96;99635.75;8391689;28;20056;-73
2022/11/14 17:06:00;;;;;;;69.53;34.10;;;;;;;7.02;99.99;99632.03;8426481;28;20051;-73
2022/11/14 17:10:02;;;;;;;66.28;33.47;;;;;;;6.96;100.00;99641.19;8391497;28;20320;-73
2022/11/14 17:14:03;;;;;;;63.15;33.83;;;;;;;6.91;100.00;99635.81;8426646;28;20331;-74
2022/11/14 17:18:08;;;;;;;63.47;35.22;;;;;;;6.83;100.00;99633.66;8376875;28;20096;-73
2022/11/14 17:22:09;;;;;;;70.65;35.58;;;;;;;6.76;100.00;99641.22;8413745;28;20048;-75
2022/11/14 17:26:11;;;;;;;72.13;35.10;;;;;;;6.65;100.00;99639.59;8427473;28;21241;-73
2022/11/14 17:30:12;;;;;;;71.32;34.88;;;;;;;6.60;100.00;99639.63;8420029;28;20422;-74
2022/11/14 17:34:13;;;;;;;68.72;35.38;;;;;;;6.59;100.00;99643.38;8407386;28;20442;-72
2022/11/14 17:38:14;;;;;;;77.88;36.80;;;;;;;6.57;100.00;99645.50;8340055;28;20045;-73
2022/11/14 17:42:15;;;;;;;76.68;37.28;;;;;;;6.50;100.00;99628.88;8329425;28;20046;-73
2022/11/14 17:46:16;;;;;;;70.22;35.88;;;;;;;6.49;100.00;99627.28;8335928;28;20275;-74
2022/11/14 17:50:17;;;;;;;80.82;37.15;;;;;;;6.45;100.00;99626.22;8335896;28;20404;-73
2022/11/14 17:54:18;;;;;;;81.32;37.60;;;;;;;6.45;100.00;99618.94;8338191;28;20057;-74
2022/11/14 17:58:19;;;;;;;75.95;37.78;;;;;;;6.45;100.00;99626.22;8329944;28;20083;-74
2022/11/14 18:02:20;;;;;;;89.57;40.00;;;;;;;6.41;100.00;99641.22;8312881;28;20045;-74
2022/11/14 18:06:23;;;;;;;83.22;40.67;;;;;;;6.36;100.00;99640.16;8334886;28;20609;-73
2022/11/14 18:10:24;;;;;;;90.72;39.78;;;;;;;6.30;100.00;99630.47;8401619;28;20094;-75
2022/11/14 18:14:25;;;;;;;87.03;41.70;;;;;;;6.25;100.00;99633.16;8398620;28;20041;-74
2022/11/14 18:18:25;;;;;;;89.72;41.70;;;;;;;6.20;100.00;99624.31;8397793;28;20055;-73
2022/11/14 18:22:27;;;;;;;93.82;42.35;;;;;;;6.16;100.00;99624.03;8394688;28;20102;-74
2022/11/14 18:26:28;;;;;;;93.65;44.17;;;;;;;6.11;100.00;99634.75;8366511;28;20048;-73
2022/11/14 18:30:29;;;;;;;119.97;50.83;;;;;;;6.07;100.00;99625.66;8407709;28;20049;-74
2022/11/14 18:34:30;;;;;;;126.63;58.30;;;;;;;6.07;100.00;99625.66;8399166;28;20044;-74
2022/11/14 18:38:31;;;;;;;173.15;77.15;;;;;;;6.05;100.00;99633.16;8430226;28;20056;-74
2022/11/14 18:42:32;;;;;;;146.50;75.32;;;;;;;5.98;100.00;99616.50;8430319;28;20138;-72
2022/11/14 18:46:33;;;;;;;112.97;54.80;;;;;;;5.94;100.00;99610.06;8431841;28;20048;-73
2022/11/14 18:50:34;;;;;;;107.28;51.17;;;;;;;5.88;100.00;99593.16;8429813;28;20048;-74